createdAt,value
2022-11-20T00:03:09.159Z,101352.59
2022-11-20T00:08:39.215Z,101375.81
2022-11-20T00:14:04.287Z,101364.81
2022-11-20T00:19:35.627Z,101360.72
2022-11-20T00:25:01.052Z,101372.75
2022-11-20T00:30:25.712Z,101397.56
2022-11-20T00:35:55.849Z,101411.69
2022-11-20T00:41:25.875Z,101392.22
2022-11-20T00:46:54.709Z,101373.72
2022-11-20T00:52:19.562Z,101366.53
2022-11-20T00:57:48.646Z,101351.97
2022-11-20T01:03:20.528Z,101329.22
2022-11-20T01:08:56.796Z,101324.16
2022-11-20T01:14:22.236Z,101334.94
2022-11-20T01:19:47.080Z,101330.13
2022-11-20T01:25:11.945Z,101336.03
2022-11-20T01:30:35.581Z,101325.53
2022-11-20T01:36:06.591Z,101310.97
2022-11-20T01:41:51.324Z,101325.91
2022-11-20T01:47:18.367Z,101312.13
2022-11-20T01:52:47.959Z,101298.44
2022-11-20T01:58:14.004Z,101300.81
2022-11-20T02:03:38.030Z,101265.28
2022-11-20T02:09:01.576Z,101293.69
2022-11-20T02:14:26.182Z,101317.50
2022-11-20T02:19:52.380Z,101307.63
2022-11-20T02:25:24.088Z,101310.16
2022-11-20T02:30:52.598Z,101331.31
2022-11-20T02:36:18.318Z,101324.78
2022-11-20T02:41:48.448Z,101321.72
2022-11-20T02:47:12.852Z,101312.53
2022-11-20T02:52:37.401Z,101287.03
2022-11-20T02:58:08.255Z,101281.97
2022-11-20T03:03:37.450Z,101301.72
2022-11-20T03:09:06.916Z,101310.44
2022-11-20T03:14:37.188Z,101302.03
2022-11-20T03:20:06.962Z,101314.19
2022-11-20T03:25:33.463Z,101293.84
2022-11-20T03:31:09.566Z,101301.59
2022-11-20T03:36:33.822Z,101313.91
2022-11-20T03:42:02.799Z,101349.19
2022-11-20T03:47:27.692Z,101360.22
2022-11-20T03:52:50.856Z,101366.56
2022-11-20T03:58:19.857Z,101369.53
2022-11-20T04:03:50.586Z,101365.59
2022-11-20T04:09:15.048Z,101365.88
2022-11-20T04:14:38.554Z,101351.06
2022-11-20T04:20:08.659Z,101345.41
2022-11-20T04:25:32.259Z,101315.41
2022-11-20T04:30:56.867Z,101317.22
2022-11-20T04:36:27.747Z,101320.75
2022-11-20T04:42:10.954Z,101321.91
2022-11-20T04:47:39.973Z,101317.28
2022-11-20T04:53:08.715Z,101323.31
2022-11-20T04:58:32.319Z,101338.56
2022-11-20T05:04:00.981Z,101329.53
2022-11-20T05:09:26.678Z,101333.34
2022-11-20T05:14:48.849Z,101327.53
2022-11-20T05:20:14.239Z,101327.41
2022-11-20T05:25:39.553Z,101344.19
2022-11-20T05:31:10.750Z,101352.09
2022-11-20T05:36:36.511Z,101353.94
2022-11-20T05:42:19.559Z,101350.41
2022-11-20T05:48:20.691Z,101339.94
2022-11-20T05:54:03.122Z,101309.94
2022-11-20T05:59:34.518Z,101311.34
2022-11-20T06:04:57.655Z,101288.84
2022-11-20T06:10:24.605Z,101291.25
2022-11-20T06:15:52.246Z,101299.41
2022-11-20T06:21:22.301Z,101293.75
2022-11-20T06:26:55.067Z,101293.75
2022-11-20T06:32:25.198Z,101333.88
2022-11-20T06:37:51.935Z,101303.31
2022-11-20T06:43:17.660Z,101288.41
2022-11-20T06:48:42.429Z,101274.59
2022-11-20T06:54:11.597Z,101267.00
2022-11-20T06:59:40.947Z,101274.19
2022-11-20T07:05:11.271Z,101290.63
2022-11-20T07:10:40.409Z,101284.19
2022-11-20T07:16:10.619Z,101293.44
2022-11-20T07:21:41.051Z,101320.44
2022-11-20T07:27:09.119Z,101335.06
2022-11-20T07:32:37.382Z,101348.22
2022-11-20T07:38:09.068Z,101320.38
2022-11-20T07:43:41.174Z,101320.78
2022-11-20T07:49:10.833Z,101335.47
2022-11-20T07:54:41.168Z,101314.06
2022-11-20T08:00:12.900Z,101299.28
2022-11-20T08:05:41.789Z,101353.47
2022-11-20T08:11:29.717Z,101288.41
2022-11-20T08:16:58.950Z,101271.50
2022-11-20T08:22:27.860Z,101267.00
2022-11-20T08:28:00.429Z,101245.88
2022-11-20T08:33:31.191Z,101238.56
2022-11-20T08:38:59.833Z,101229.81
2022-11-20T08:44:30.058Z,101193.63
2022-11-20T08:49:58.697Z,101193.59
2022-11-20T08:55:27.747Z,101165.94
2022-11-20T09:00:58.400Z,101151.28
2022-11-20T09:06:28.257Z,101159.31
2022-11-20T09:11:56.674Z,101158.72
2022-11-20T09:17:27.291Z,101125.78
2022-11-20T09:22:55.462Z,101120.25
2022-11-20T09:28:24.428Z,101108.84
2022-11-20T09:33:55.561Z,101123.91
2022-11-20T09:39:24.822Z,101122.94
2022-11-20T09:45:15.341Z,101111.63
2022-11-20T09:50:50.943Z,101079.91
2022-11-20T09:56:22.971Z,101066.50
2022-11-20T10:01:52.332Z,101067.47
2022-11-20T10:07:33.455Z,101056.75
2022-11-20T10:13:22.574Z,101059.22
2022-11-20T10:19:08.278Z,101048.47
2022-11-20T10:24:57.309Z,101043.09
2022-11-20T10:30:27.087Z,101020.88
2022-11-20T10:36:03.341Z,101003.19
2022-11-20T10:41:35.868Z,100982.19
2022-11-20T10:47:01.530Z,100973.75
2022-11-20T10:52:35.175Z,100968.16
2022-11-20T10:58:08.043Z,100977.03
2022-11-20T11:03:33.973Z,100934.13
2022-11-20T11:09:01.175Z,100960.81
2022-11-20T11:14:30.847Z,100981.09
2022-11-20T11:20:03.974Z,100916.59
2022-11-20T11:25:34.690Z,100938.50
2022-11-20T11:30:59.946Z,100937.81
2022-11-20T11:36:29.523Z,100920.34
2022-11-20T11:41:57.394Z,100922.31
2022-11-20T11:47:34.433Z,100942.16
2022-11-20T11:53:11.537Z,100913.28
2022-11-20T11:58:47.931Z,100918.06
2022-11-20T12:04:19.454Z,100924.56
2022-11-20T12:09:54.361Z,100927.94
2022-11-20T12:15:31.164Z,100924.78
2022-11-20T12:21:10.957Z,100912.41
2022-11-20T12:26:54.245Z,100900.69
2022-11-20T12:32:54.133Z,100915.59
2022-11-20T12:38:48.652Z,100896.88
2022-11-20T12:44:49.687Z,100913.47
2022-11-20T12:50:25.461Z,100870.25
2022-11-20T12:56:01.981Z,100869.25
2022-11-20T13:01:45.128Z,100866.88
2022-11-20T13:07:15.443Z,100869.19
2022-11-20T13:12:51.109Z,100847.94
2022-11-20T13:18:19.165Z,100840.34
2022-11-20T13:23:47.959Z,100837.28
2022-11-20T13:29:20.175Z,100819.16
2022-11-20T13:34:58.100Z,100819.06
2022-11-20T13:40:25.037Z,100791.00
2022-11-20T13:45:59.589Z,100782.97
2022-11-20T13:51:36.291Z,100792.63
2022-11-20T13:57:09.917Z,100837.81
2022-11-20T14:02:34.784Z,100768.91
2022-11-20T14:08:00.106Z,100763.28
2022-11-20T14:13:24.007Z,100756.22
2022-11-20T14:18:54.856Z,100749.81
2022-11-20T14:24:25.602Z,100767.22
2022-11-20T14:29:54.974Z,100753.41
2022-11-20T14:35:25.200Z,100761.44
2022-11-20T14:40:54.062Z,100739.56
2022-11-20T14:46:23.735Z,100737.56
2022-11-20T14:51:49.281Z,100728.53
2022-11-20T14:57:23.997Z,100707.81
2022-11-20T15:02:49.751Z,100715.84
2022-11-20T15:08:17.047Z,100712.00
2022-11-20T15:13:41.472Z,100727.28
2022-11-20T15:19:19.230Z,100732.00
2022-11-20T15:24:49.489Z,100722.97
2022-11-20T15:30:19.185Z,100668.41
2022-11-20T15:35:47.972Z,100657.69
2022-11-20T15:41:12.453Z,100646.16
2022-11-20T15:46:41.047Z,100653.34
2022-11-20T15:52:11.106Z,100640.25
2022-11-20T15:57:41.408Z,100648.34
2022-11-20T16:03:13.273Z,100648.03
2022-11-20T16:08:36.524Z,100707.97
2022-11-20T16:14:17.702Z,100688.75
2022-11-20T16:19:47.008Z,100653.28
2022-11-20T16:25:16.114Z,100641.41
2022-11-20T16:30:46.848Z,100624.00
2022-11-20T16:36:17.255Z,100599.38
2022-11-20T16:41:45.615Z,100606.44
2022-11-20T16:47:15.864Z,100587.16
2022-11-20T16:52:45.213Z,100563.06
2022-11-20T16:58:14.125Z,100560.72
2022-11-20T17:03:46.362Z,100561.50
2022-11-20T17:09:15.370Z,100543.31
2022-11-20T17:14:44.296Z,100539.63
2022-11-20T17:20:14.670Z,100523.75
2022-11-20T17:25:43.815Z,100541.47
2022-11-20T17:31:17.449Z,100522.59
2022-11-20T17:36:47.102Z,100505.66
2022-11-20T17:42:27.804Z,100502.50
2022-11-20T17:47:57.102Z,100487.59
2022-11-20T17:53:27.327Z,100472.03
2022-11-20T17:58:55.829Z,100482.44
2022-11-20T18:04:25.273Z,100484.13
2022-11-20T18:09:56.483Z,100479.44
2022-11-20T18:15:26.201Z,100465.19
2022-11-20T18:20:54.864Z,100457.31
2022-11-20T18:26:25.947Z,100453.97
2022-11-20T18:31:55.355Z,100437.72
2022-11-20T18:37:24.224Z,100430.50
2022-11-20T18:43:11.825Z,100428.13
2022-11-20T18:48:41.159Z,100420.44
2022-11-20T18:54:10.271Z,100415.25
2022-11-20T18:59:40.807Z,100404.66
2022-11-20T19:05:10.210Z,100389.38
2022-11-20T19:10:38.973Z,100389.88
2022-11-20T19:16:11.438Z,100385.47
2022-11-20T19:21:41.119Z,100383.09
2022-11-20T19:27:09.677Z,100362.31
2022-11-20T19:32:40.311Z,100360.59
2022-11-20T19:38:08.994Z,100354.53
2022-11-20T19:43:38.400Z,100353.50
2022-11-20T19:49:03.636Z,100358.16
2022-11-20T19:54:27.256Z,100364.81
2022-11-20T19:59:51.046Z,100353.38
2022-11-20T20:05:15.764Z,100349.34
2022-11-20T20:10:40.093Z,100348.81
2022-11-20T20:16:09.378Z,100348.25
2022-11-20T20:21:37.370Z,100352.25
2022-11-20T20:27:06.247Z,100340.84
2022-11-20T20:32:35.329Z,100338.00
2022-11-20T20:38:06.349Z,100333.81
2022-11-20T20:43:31.446Z,100338.50
2022-11-20T20:48:57.532Z,100328.03
2022-11-20T20:54:22.865Z,100337.16
2022-11-20T20:59:46.368Z,100335.47
2022-11-20T21:05:11.077Z,100338.16
2022-11-20T21:10:41.587Z,100341.84
2022-11-20T21:16:04.762Z,100326.28
2022-11-20T21:21:51.848Z,100320.53
2022-11-20T21:27:22.424Z,100326.06
2022-11-20T21:32:48.161Z,100317.84
2022-11-20T21:38:12.572Z,100306.25
2022-11-20T21:43:38.142Z,100298.34
2022-11-20T21:49:06.660Z,100288.69
2022-11-20T21:54:31.438Z,100287.44
2022-11-20T22:00:00.817Z,100272.44
2022-11-20T22:05:30.074Z,100284.19
2022-11-20T22:11:01.128Z,100275.19
2022-11-20T22:16:31.382Z,100278.91
2022-11-20T22:21:54.707Z,100275.84
2022-11-20T22:27:18.720Z,100270.66
2022-11-20T22:32:45.178Z,100253.72
2022-11-20T22:38:14.177Z,100244.06
2022-11-20T22:43:43.643Z,100236.47
2022-11-20T22:49:14.167Z,100221.31
2022-11-20T22:54:42.977Z,100204.72
2022-11-20T23:00:12.813Z,100207.78
2022-11-20T23:05:43.541Z,100204.78
2022-11-20T23:11:14.858Z,100185.69
2022-11-20T23:16:44.479Z,100192.63
2022-11-20T23:22:14.284Z,100196.78
2022-11-20T23:27:43.162Z,100190.28
2022-11-20T23:33:12.119Z,100186.94
2022-11-20T23:38:42.677Z,100200.06
2022-11-20T23:44:11.460Z,100199.56
2022-11-20T23:49:39.683Z,100178.22
2022-11-20T23:55:10.898Z,100203.84
